Time;durP1;ratioP1;P1;durP2;ratioP2;P2;SDS_P1;SDS_P2;PMS_P1;PMS_P2;Temp;Humidity;BMP_temperature;BMP_pressure;BME280_temperature;BME280_humidity;BME280_pressure;Samples;Min_cycle;Max_cycle;Signal;HPM_P1;HPM_P2
2023/05/26 00:00:56;;;;;;;6.32;3.50;;;;;;;;;;4996410;28;20027;-18
2023/05/26 00:03:23;;;;;;;7.05;4.13;;;;;;;;;;4996095;28;20046;-19
2023/05/26 00:05:49;;;;;;;5.40;3.85;;;;;;;;;;4996625;28;20121;-21
2023/05/26 00:08:15;;;;;;;8.10;3.70;;;;;;;;;;4996240;28;20034;-18
2023/05/26 00:10:41;;;;;;;7.05;3.85;;;;;;;;;;4996453;28;20026;-19
2023/05/26 00:13:07;;;;;;;4.32;3.50;;;;;;;;;;4996126;28;20026;-21
2023/05/26 00:15:33;;;;;;;6.05;3.72;;;;;;;;;;4996367;28;20370;-19
2023/05/26 00:18:01;;;;;;;6.82;3.72;;;;;;;;;;4996123;28;20458;-21
2023/05/26 00:20:27;;;;;;;5.70;3.67;;;;;;;;;;4996018;28;20026;-21
2023/05/26 00:22:53;;;;;;;9.45;4.03;;;;;;;;;;4996215;28;20128;-22
2023/05/26 00:25:20;;;;;;;5.43;3.17;;;;;;;;;;4996041;28;20031;-21
2023/05/26 00:27:46;;;;;;;5.60;3.67;;;;;;;;;;4995865;28;20026;-21
2023/05/26 00:30:12;;;;;;;7.20;4.07;;;;;;;;;;4996416;28;20036;-19
2023/05/26 00:32:39;;;;;;;6.40;3.72;;;;;;;;;;4995789;28;20089;-19
2023/05/26 00:35:05;;;;;;;5.78;3.90;;;;;;;;;;4996074;28;20019;-21
2023/05/26 00:37:32;;;;;;;5.70;4.10;;;;;;;;;;4995667;28;20030;-22
2023/05/26 00:39:58;;;;;;;4.97;3.80;;;;;;;;;;4995730;28;20457;-24
2023/05/26 00:42:25;;;;;;;5.32;4.82;;;;;;;;;;4995854;28;20022;-20
2023/05/26 00:44:54;;;;;;;8.10;3.88;;;;;;;;;;4995603;28;20030;-23
2023/05/26 00:47:20;;;;;;;4.10;3.08;;;;;;;;;;4995830;28;20399;-20
2023/05/26 00:49:46;;;;;;;4.75;3.38;;;;;;;;;;4995581;28;20026;-19
2023/05/26 00:52:12;;;;;;;4.25;3.50;;;;;;;;;;4995735;28;20026;-23
2023/05/26 00:54:40;;;;;;;5.07;3.15;;;;;;;;;;4995490;28;20172;-22
2023/05/26 00:57:06;;;;;;;5.97;3.35;;;;;;;;;;4996015;28;20058;-20
2023/05/26 00:59:32;;;;;;;4.95;3.38;;;;;;;;;;4995461;28;20038;-20
2023/05/26 01:01:59;;;;;;;3.80;3.40;;;;;;;;;;4995634;28;20064;-19
2023/05/26 01:04:25;;;;;;;3.60;3.28;;;;;;;;;;4995317;28;20047;-22
2023/05/26 01:06:52;;;;;;;5.60;3.33;;;;;;;;;;4995322;28;20064;-18
2023/05/26 01:09:18;;;;;;;7.82;3.95;;;;;;;;;;4978142;28;20027;-16
2023/05/26 01:12:03;;;;;;;4.25;3.85;;;;;;;;;;4995226;28;20065;-17
2023/05/26 01:14:41;;;;;;;6.70;4.07;;;;;;;;;;4995290;28;20084;-24
2023/05/26 01:17:18;;;;;;;7.53;3.42;;;;;;;;;;4995284;28;20089;-20
2023/05/26 01:19:57;;;;;;;4.40;3.50;;;;;;;;;;4995505;28;20442;-20
2023/05/26 01:22:35;;;;;;;8.95;3.95;;;;;;;;;;4995376;28;20098;-19
2023/05/26 01:25:20;;;;;;;9.25;3.50;;;;;;;;;;4995207;28;20022;-22
2023/05/26 01:28:05;;;;;;;3.80;3.42;;;;;;;;;;4995070;28;20038;-20
2023/05/26 01:30:32;;;;;;;4.30;3.17;;;;;;;;;;4996481;28;20331;-20
2023/05/26 01:32:58;;;;;;;5.07;3.90;;;;;;;;;;4999107;28;20034;-22
2023/05/26 01:35:24;;;;;;;5.45;3.20;;;;;;;;;;4999176;28;20030;-21
2023/05/26 01:37:51;;;;;;;3.80;3.40;;;;;;;;;;4981895;28;20026;-18
2023/05/26 01:40:17;;;;;;;6.65;3.53;;;;;;;;;;4999297;28;20089;-18
2023/05/26 01:42:46;;;;;;;6.88;3.83;;;;;;;;;;4998923;28;20058;-19
2023/05/26 01:45:21;;;;;;;5.60;3.40;;;;;;;;;;4999246;28;20027;-19
2023/05/26 01:47:50;;;;;;;3.42;3.10;;;;;;;;;;4999075;28;20026;-21
2023/05/26 01:50:17;;;;;;;4.97;3.08;;;;;;;;;;4998818;28;20057;-19
2023/05/26 01:52:44;;;;;;;3.80;3.40;;;;;;;;;;4999014;28;20027;-21
2023/05/26 01:55:11;;;;;;;6.32;4.32;;;;;;;;;;4998789;28;20398;-19
2023/05/26 01:57:38;;;;;;;3.00;2.80;;;;;;;;;;4999018;28;20433;-21
2023/05/26 02:00:05;;;;;;;5.25;3.10;;;;;;;;;;4965542;28;20076;-19
2023/05/26 02:02:31;;;;;;;4.32;3.78;;;;;;;;;;4998491;28;20026;-20
2023/05/26 02:04:57;;;;;;;5.00;3.67;;;;;;;;;;4998520;28;20113;-20
2023/05/26 02:07:23;;;;;;;3.28;2.45;;;;;;;;;;4998766;28;20050;-18
2023/05/26 02:09:50;;;;;;;3.22;2.90;;;;;;;;;;4998799;28;20027;-18
2023/05/26 02:12:16;;;;;;;3.38;3.10;;;;;;;;;;4998452;28;20029;-21
2023/05/26 02:14:42;;;;;;;3.58;3.25;;;;;;;;;;4998919;28;20069;-20
2023/05/26 02:17:10;;;;;;;5.35;3.20;;;;;;;;;;4998452;28;20025;-21
2023/05/26 02:19:36;;;;;;;6.47;3.45;;;;;;;;;;4998627;28;20023;-19
2023/05/26 02:22:02;;;;;;;5.03;3.17;;;;;;;;;;4998242;28;20030;-21
2023/05/26 02:24:28;;;;;;;3.70;3.08;;;;;;;;;;4998226;28;20454;-20
2023/05/26 02:26:55;;;;;;;3.22;2.95;;;;;;;;;;4998472;28;20022;-19
2023/05/26 02:29:21;;;;;;;3.08;2.67;;;;;;;;;;4998104;28;20030;-18
2023/05/26 02:31:47;;;;;;;6.47;3.25;;;;;;;;;;4998563;28;20029;-19
2023/05/26 02:34:13;;;;;;;3.58;3.00;;;;;;;;;;4998401;28;20408;-19
2023/05/26 02:36:40;;;;;;;3.80;3.50;;;;;;;;;;4998061;28;20104;-21
2023/05/26 02:39:06;;;;;;;5.88;3.42;;;;;;;;;;4998004;28;20033;-20
2023/05/26 02:41:32;;;;;;;5.13;3.38;;;;;;;;;;4997605;28;20022;-22
2023/05/26 02:43:58;;;;;;;5.25;3.10;;;;;;;;;;4979951;28;20536;-20
2023/05/26 02:46:24;;;;;;;3.45;3.03;;;;;;;;;;4997826;28;20446;-23
2023/05/26 02:48:51;;;;;;;5.80;3.45;;;;;;;;;;4980608;28;20060;-18
2023/05/26 02:51:17;;;;;;;2.88;2.65;;;;;;;;;;4998057;28;20041;-23
2023/05/26 02:53:45;;;;;;;4.07;2.83;;;;;;;;;;4997929;28;20097;-23
2023/05/26 02:56:11;;;;;;;3.63;2.80;;;;;;;;;;4997717;28;20031;-19
2023/05/26 02:58:37;;;;;;;3.78;2.83;;;;;;;;;;4997632;28;20026;-19
2023/05/26 03:01:04;;;;;;;6.57;3.55;;;;;;;;;;4998149;28;20461;-26
2023/05/26 03:03:30;;;;;;;4.07;3.30;;;;;;;;;;4980002;28;20054;-20
2023/05/26 03:05:58;;;;;;;5.32;2.72;;;;;;;;;;4998102;28;20501;-19
2023/05/26 03:08:24;;;;;;;5.80;3.17;;;;;;;;;;4997366;28;20460;-20
2023/05/26 03:10:50;;;;;;;3.35;3.05;;;;;;;;;;4997405;28;20038;-19
2023/05/26 03:13:17;;;;;;;4.55;3.10;;;;;;;;;;4997287;28;20101;-20
2023/05/26 03:15:44;;;;;;;4.75;3.50;;;;;;;;;;4997303;28;20157;-22
2023/05/26 03:18:10;;;;;;;4.28;3.47;;;;;;;;;;4997275;28;20501;-24
2023/05/26 03:20:36;;;;;;;3.65;2.80;;;;;;;;;;4997471;28;20054;-19
2023/05/26 03:23:03;;;;;;;3.20;2.90;;;;;;;;;;4997330;28;20053;-18
2023/05/26 03:25:29;;;;;;;3.58;2.47;;;;;;;;;;4997415;28;20034;-17
2023/05/26 03:27:55;;;;;;;2.53;2.30;;;;;;;;;;4997231;28;20419;-21
2023/05/26 03:30:21;;;;;;;3.70;3.40;;;;;;;;;;4997039;28;20038;-24
2023/05/26 03:32:47;;;;;;;6.05;3.65;;;;;;;;;;4996905;28;20023;-21
2023/05/26 03:35:13;;;;;;;3.70;3.08;;;;;;;;;;4996970;28;20354;-19
2023/05/26 03:37:40;;;;;;;2.92;2.72;;;;;;;;;;4996877;28;20026;-23
2023/05/26 03:40:06;;;;;;;6.00;3.80;;;;;;;;;;4997118;28;20427;-21
2023/05/26 03:42:32;;;;;;;3.53;3.22;;;;;;;;;;4996970;28;20032;-20
2023/05/26 03:44:58;;;;;;;3.88;2.80;;;;;;;;;;4996703;28;20037;-22
2023/05/26 03:47:24;;;;;;;4.80;2.75;;;;;;;;;;4996536;28;20030;-20
2023/05/26 03:49:51;;;;;;;4.60;3.10;;;;;;;;;;4996644;28;20385;-21
2023/05/26 03:52:17;;;;;;;5.60;3.03;;;;;;;;;;4979424;28;20023;-19
2023/05/26 03:54:43;;;;;;;5.15;3.45;;;;;;;;;;4996099;28;20018;-20
2023/05/26 03:57:09;;;;;;;6.00;3.33;;;;;;;;;;4996437;28;20037;-20
2023/05/26 03:59:35;;;;;;;8.23;3.22;;;;;;;;;;4996422;28;20037;-25
2023/05/26 04:02:02;;;;;;;3.30;2.70;;;;;;;;;;4979438;28;20030;-21
2023/05/26 04:04:28;;;;;;;3.88;3.55;;;;;;;;;;4996181;28;20046;-24
2023/05/26 04:06:55;;;;;;;5.13;3.17;;;;;;;;;;4996239;28;20037;-19
2023/05/26 04:09:21;;;;;;;8.18;3.38;;;;;;;;;;4996004;28;20034;-27
2023/05/26 04:11:47;;;;;;;5.07;3.15;;;;;;;;;;4996301;28;20026;-21
2023/05/26 04:14:13;;;;;;;4.10;3.33;;;;;;;;;;4996243;28;20093;-22
2023/05/26 04:16:40;;;;;;;4.05;2.92;;;;;;;;;;4996470;28;20097;-18
2023/05/26 04:19:07;;;;;;;4.43;3.15;;;;;;;;;;4995999;28;20125;-19
2023/05/26 04:24:09;;;;;;;5.60;3.20;;;;;;;;;;5345704;22;20137;-29
2023/05/26 04:26:37;;;;;;;5.03;2.95;;;;;;;;;;4995903;28;20077;-29
2023/05/26 04:29:04;;;;;;;5.65;3.10;;;;;;;;;;4995749;28;20357;-29
2023/05/26 04:31:30;;;;;;;4.10;3.15;;;;;;;;;;4995539;28;20026;-27
2023/05/26 04:33:59;;;;;;;5.75;3.03;;;;;;;;;;4995493;28;20143;-31
2023/05/26 04:36:25;;;;;;;3.40;2.88;;;;;;;;;;4995966;28;20396;-30
2023/05/26 04:38:54;;;;;;;4.07;3.33;;;;;;;;;;4995092;28;20042;-31
2023/05/26 04:41:21;;;;;;;3.90;3.03;;;;;;;;;;4995584;28;20038;-30
2023/05/26 04:43:47;;;;;;;5.07;2.55;;;;;;;;;;4995336;28;20041;-30
2023/05/26 04:46:13;;;;;;;4.70;2.95;;;;;;;;;;4995327;28;20031;-29
2023/05/26 04:48:39;;;;;;;2.78;2.50;;;;;;;;;;4995436;28;20030;-30
2023/05/26 04:51:07;;;;;;;8.52;2.97;;;;;;;;;;4995442;28;20026;-30
2023/05/26 04:53:33;;;;;;;3.33;2.85;;;;;;;;;;4995484;28;20034;-28
2023/05/26 04:56:00;;;;;;;4.47;3.15;;;;;;;;;;4995361;28;20085;-27
2023/05/26 04:58:26;;;;;;;2.65;2.45;;;;;;;;;;4995237;28;20061;-28
2023/05/26 05:00:53;;;;;;;4.45;3.38;;;;;;;;;;4978183;28;20031;-30
2023/05/26 05:03:21;;;;;;;2.55;2.30;;;;;;;;;;4995619;28;20041;-27
2023/05/26 05:05:47;;;;;;;4.07;3.05;;;;;;;;;;4994836;28;20050;-30
2023/05/26 05:08:14;;;;;;;4.57;3.30;;;;;;;;;;4995207;28;20381;-31
2023/05/26 05:10:40;;;;;;;2.97;2.65;;;;;;;;;;4995192;28;20105;-29
2023/05/26 05:13:06;;;;;;;4.47;3.47;;;;;;;;;;4977955;28;20032;-29
2023/05/26 05:15:32;;;;;;;4.22;3.58;;;;;;;;;;4995303;28;20026;-29
2023/05/26 05:17:59;;;;;;;3.95;2.90;;;;;;;;;;4995115;28;20034;-28
2023/05/26 05:20:25;;;;;;;4.53;2.65;;;;;;;;;;4994955;28;20030;-32
2023/05/26 05:22:52;;;;;;;3.15;2.85;;;;;;;;;;4995485;28;20033;-29
2023/05/26 05:25:18;;;;;;;3.25;2.95;;;;;;;;;;4994944;28;20042;-31
2023/05/26 05:27:44;;;;;;;5.07;3.00;;;;;;;;;;4995360;28;20030;-29
2023/05/26 05:30:11;;;;;;;7.03;3.33;;;;;;;;;;4995785;28;20085;-30
2023/05/26 05:32:38;;;;;;;7.32;3.22;;;;;;;;;;4995252;28;20027;-31
2023/05/26 05:35:05;;;;;;;9.48;3.08;;;;;;;;;;4995072;28;20054;-31
2023/05/26 05:37:31;;;;;;;5.10;3.65;;;;;;;;;;4994916;28;20046;-31
2023/05/26 05:39:57;;;;;;;3.90;3.47;;;;;;;;;;4994948;28;20029;-29
2023/05/26 05:42:24;;;;;;;6.20;2.80;;;;;;;;;;4995232;28;20018;-31
2023/05/26 05:44:51;;;;;;;6.75;3.15;;;;;;;;;;4994965;28;20054;-27
2023/05/26 05:47:17;;;;;;;5.28;2.80;;;;;;;;;;4994708;28;20365;-29
2023/05/26 05:49:43;;;;;;;5.78;2.50;;;;;;;;;;4994348;28;20033;-31
2023/05/26 05:52:09;;;;;;;4.60;2.58;;;;;;;;;;4994757;28;20085;-29
2023/05/26 05:54:35;;;;;;;3.47;3.17;;;;;;;;;;4994417;28;20410;-31
2023/05/26 05:57:01;;;;;;;6.32;3.20;;;;;;;;;;4977536;28;20031;-32
2023/05/26 05:59:27;;;;;;;5.15;2.97;;;;;;;;;;4994785;28;20058;-32
2023/05/26 06:01:53;;;;;;;3.55;2.58;;;;;;;;;;4994778;28;20027;-29
2023/05/26 06:04:20;;;;;;;4.22;2.85;;;;;;;;;;4994561;28;20026;-30
2023/05/26 06:06:46;;;;;;;5.75;2.97;;;;;;;;;;4994914;28;20026;-32
2023/05/26 06:09:12;;;;;;;5.47;3.20;;;;;;;;;;4995074;28;20031;-30
2023/05/26 06:11:38;;;;;;;2.72;2.40;;;;;;;;;;4994633;28;20022;-31
2023/05/26 06:14:04;;;;;;;2.50;2.30;;;;;;;;;;4994647;28;20065;-31
2023/05/26 06:16:30;;;;;;;4.20;3.17;;;;;;;;;;4995371;28;20081;-32
2023/05/26 06:18:56;;;;;;;5.50;3.05;;;;;;;;;;4999035;28;20100;-31
2023/05/26 06:21:23;;;;;;;5.93;3.05;;;;;;;;;;4998556;28;20027;-29
2023/05/26 06:23:51;;;;;;;4.32;2.47;;;;;;;;;;4998088;28;20066;-29
2023/05/26 06:26:18;;;;;;;3.60;3.17;;;;;;;;;;4998433;28;20088;-31
2023/05/26 06:28:44;;;;;;;5.32;2.83;;;;;;;;;;4997978;28;20030;-31
2023/05/26 06:31:10;;;;;;;7.53;3.70;;;;;;;;;;4998042;28;20027;-31
2023/05/26 06:33:36;;;;;;;8.80;3.05;;;;;;;;;;4998240;28;20018;-29
2023/05/26 06:36:02;;;;;;;5.70;3.22;;;;;;;;;;4998269;28;20027;-32
2023/05/26 06:38:28;;;;;;;17.73;4.50;;;;;;;;;;4997916;28;20046;-29
2023/05/26 06:40:54;;;;;;;3.50;2.75;;;;;;;;;;4998186;28;20382;-31
2023/05/26 06:43:21;;;;;;;6.22;3.08;;;;;;;;;;4998138;28;20330;-31
2023/05/26 06:45:47;;;;;;;4.28;2.97;;;;;;;;;;4998083;28;20022;-31
2023/05/26 06:48:13;;;;;;;7.65;3.50;;;;;;;;;;4997987;28;20057;-30
2023/05/26 06:50:39;;;;;;;8.10;2.97;;;;;;;;;;4997938;28;20034;-27
2023/05/26 06:53:05;;;;;;;5.25;2.83;;;;;;;;;;4997559;28;20081;-28
2023/05/26 06:55:31;;;;;;;9.07;3.08;;;;;;;;;;4997850;28;20027;-33
2023/05/26 06:57:58;;;;;;;4.13;2.97;;;;;;;;;;4998315;28;20085;-27
2023/05/26 07:00:24;;;;;;;4.60;3.47;;;;;;;;;;4997445;28;20022;-29
2023/05/26 07:02:50;;;;;;;4.47;2.95;;;;;;;;;;4997561;28;20034;-30
2023/05/26 07:05:16;;;;;;;3.53;3.22;;;;;;;;;;4997585;28;20041;-30
2023/05/26 07:07:42;;;;;;;8.40;3.35;;;;;;;;;;4997478;28;20030;-30
2023/05/26 07:10:09;;;;;;;7.40;3.17;;;;;;;;;;4997561;28;20096;-26
2023/05/26 07:12:35;;;;;;;6.68;3.28;;;;;;;;;;4997439;28;20027;-31
2023/05/26 07:15:01;;;;;;;10.15;3.70;;;;;;;;;;4997206;28;20026;-29
2023/05/26 07:17:27;;;;;;;12.82;3.50;;;;;;;;;;4997261;28;20022;-28
2023/05/26 07:19:53;;;;;;;5.68;2.60;;;;;;;;;;4997192;28;20026;-29
2023/05/26 07:22:19;;;;;;;4.32;3.08;;;;;;;;;;4997098;28;20022;-30
2023/05/26 07:24:45;;;;;;;8.45;3.17;;;;;;;;;;4996807;28;20420;-32
2023/05/26 07:27:12;;;;;;;4.07;3.40;;;;;;;;;;4980520;28;20116;-30
2023/05/26 07:29:38;;;;;;;4.35;2.75;;;;;;;;;;4996174;28;20022;-32
2023/05/26 07:32:05;;;;;;;9.55;3.15;;;;;;;;;;4996802;28;20050;-29
2023/05/26 07:34:31;;;;;;;5.10;3.92;;;;;;;;;;4996734;28;20033;-29
2023/05/26 07:36:57;;;;;;;4.60;3.10;;;;;;;;;;4979670;28;20516;-30
2023/05/26 07:39:23;;;;;;;6.43;2.83;;;;;;;;;;4997075;28;20027;-28
2023/05/26 07:41:49;;;;;;;5.72;2.95;;;;;;;;;;4996959;28;20365;-28
2023/05/26 07:44:15;;;;;;;5.28;3.45;;;;;;;;;;4996798;28;20420;-30
2023/05/26 07:46:41;;;;;;;6.72;3.75;;;;;;;;;;4996527;28;20022;-30
2023/05/26 07:49:07;;;;;;;13.18;3.65;;;;;;;;;;4996930;28;20133;-31
2023/05/26 07:51:34;;;;;;;8.23;3.67;;;;;;;;;;4996690;28;20022;-40
2023/05/26 07:54:00;;;;;;;10.30;3.78;;;;;;;;;;4996591;28;20084;-31
2023/05/26 07:56:26;;;;;;;7.70;4.03;;;;;;;;;;4996516;28;20057;-27
2023/05/26 07:58:52;;;;;;;7.63;3.50;;;;;;;;;;4996693;28;20465;-30
2023/05/26 08:01:19;;;;;;;10.27;3.60;;;;;;;;;;4996155;28;20091;-27
2023/05/26 08:03:47;;;;;;;6.78;3.42;;;;;;;;;;4996238;28;20030;-30
2023/05/26 08:06:13;;;;;;;11.75;4.53;;;;;;;;;;4996157;28;20101;-32
2023/05/26 08:08:40;;;;;;;11.50;3.13;;;;;;;;;;4996303;28;20027;-29
2023/05/26 08:11:06;;;;;;;7.72;3.53;;;;;;;;;;4996279;28;20018;-32
2023/05/26 08:13:32;;;;;;;8.60;3.25;;;;;;;;;;4995823;28;20457;-32
2023/05/26 08:15:58;;;;;;;8.68;3.03;;;;;;;;;;4996039;28;20097;-30
2023/05/26 08:18:25;;;;;;;8.02;2.90;;;;;;;;;;4996120;28;20032;-30
2023/05/26 08:20:52;;;;;;;8.55;4.53;;;;;;;;;;4995873;28;20081;-31
2023/05/26 08:23:19;;;;;;;8.07;2.83;;;;;;;;;;4995584;28;20057;-29
2023/05/26 08:25:45;;;;;;;3.97;3.42;;;;;;;;;;4995715;28;20057;-31
2023/05/26 08:28:11;;;;;;;7.90;2.85;;;;;;;;;;4995694;28;20109;-30
2023/05/26 08:30:38;;;;;;;8.40;3.28;;;;;;;;;;4995924;28;20030;-27
2023/05/26 08:33:04;;;;;;;6.78;2.90;;;;;;;;;;4995788;28;20023;-31
2023/05/26 08:35:30;;;;;;;6.80;5.00;;;;;;;;;;4996002;28;20023;-28
2023/05/26 08:37:57;;;;;;;6.78;3.03;;;;;;;;;;4996146;28;20127;-32
2023/05/26 08:40:23;;;;;;;4.40;2.72;;;;;;;;;;4995815;28;20030;-33
2023/05/26 08:42:53;;;;;;;6.80;3.30;;;;;;;;;;4995737;28;20026;-30
2023/05/26 08:45:20;;;;;;;10.82;3.40;;;;;;;;;;4979480;28;20022;-31
2023/05/26 08:47:48;;;;;;;4.57;3.20;;;;;;;;;;4995762;28;20113;-30
2023/05/26 08:50:14;;;;;;;4.65;3.40;;;;;;;;;;4995488;28;20034;-28
2023/05/26 08:52:41;;;;;;;6.65;3.53;;;;;;;;;;4995659;28;20406;-30
2023/05/26 08:55:08;;;;;;;6.68;3.67;;;;;;;;;;4995741;28;20026;-30
2023/05/26 08:57:34;;;;;;;9.45;3.17;;;;;;;;;;4995441;28;20029;-28
2023/05/26 09:00:02;;;;;;;5.85;3.30;;;;;;;;;;4995460;28;20054;-30
2023/05/26 09:02:28;;;;;;;5.93;3.40;;;;;;;;;;4995633;28;20339;-31
2023/05/26 09:04:54;;;;;;;5.82;3.10;;;;;;;;;;4995216;28;20026;-30
2023/05/26 09:07:20;;;;;;;7.47;3.03;;;;;;;;;;4995298;28;20026;-30
2023/05/26 09:09:46;;;;;;;9.80;3.25;;;;;;;;;;4995894;28;20058;-30
2023/05/26 09:12:13;;;;;;;7.72;3.20;;;;;;;;;;4995191;28;20030;-29
2023/05/26 09:14:40;;;;;;;3.92;3.10;;;;;;;;;;4961680;28;20022;-31
2023/05/26 09:17:06;;;;;;;12.10;3.25;;;;;;;;;;4995107;28;20022;-31
2023/05/26 09:19:33;;;;;;;5.93;4.55;;;;;;;;;;4995016;28;20054;-32
2023/05/26 09:22:05;;;;;;;9.43;3.20;;;;;;;;;;4995046;28;20387;-30
2023/05/26 09:24:42;;;;;;;6.72;2.88;;;;;;;;;;4994363;28;20046;-31
2023/05/26 09:27:16;;;;;;;7.22;4.35;;;;;;;;;;4994904;28;20331;-30
2023/05/26 09:29:49;;;;;;;9.70;3.10;;;;;;;;;;4994525;28;20023;-30
2023/05/26 09:32:15;;;;;;;6.93;4.45;;;;;;;;;;4994935;28;20041;-30
2023/05/26 09:34:41;;;;;;;7.43;3.28;;;;;;;;;;4994520;28;20030;-26
2023/05/26 09:37:10;;;;;;;8.77;3.33;;;;;;;;;;4977284;28;20046;-29
2023/05/26 09:39:36;;;;;;;8.25;4.00;;;;;;;;;;4994825;28;20026;-30
2023/05/26 09:42:08;;;;;;;10.00;3.95;;;;;;;;;;4994692;28;20030;-30
2023/05/26 09:44:34;;;;;;;12.13;3.67;;;;;;;;;;4977088;28;20117;-33
2023/05/26 09:47:01;;;;;;;7.38;3.15;;;;;;;;;;4994634;28;20449;-29
2023/05/26 09:49:27;;;;;;;12.63;3.30;;;;;;;;;;4977242;28;20399;-29
2023/05/26 09:51:54;;;;;;;13.10;4.43;;;;;;;;;;4995596;28;20097;-32
2023/05/26 09:54:21;;;;;;;4.88;3.00;;;;;;;;;;4998285;28;20052;-31
2023/05/26 09:56:57;;;;;;;8.15;4.22;;;;;;;;;;4998300;28;20022;-29
2023/05/26 09:59:26;;;;;;;4.50;3.63;;;;;;;;;;4998242;28;20050;-28
2023/05/26 10:01:53;;;;;;;8.32;2.85;;;;;;;;;;4998489;28;20034;-33
2023/05/26 10:04:19;;;;;;;10.32;3.20;;;;;;;;;;4998523;28;20360;-30
2023/05/26 10:06:48;;;;;;;8.38;3.95;;;;;;;;;;4998185;28;20065;-27
2023/05/26 10:09:14;;;;;;;10.80;3.60;;;;;;;;;;4998270;28;20022;-28
2023/05/26 10:11:41;;;;;;;13.45;3.75;;;;;;;;;;4998385;28;20410;-32
2023/05/26 10:14:08;;;;;;;7.15;3.15;;;;;;;;;;4997967;28;20096;-28
2023/05/26 10:16:34;;;;;;;6.75;3.40;;;;;;;;;;4998253;28;20023;-34
2023/05/26 10:19:01;;;;;;;5.85;2.85;;;;;;;;;;4998124;28;20050;-28
2023/05/26 10:21:28;;;;;;;9.32;3.17;;;;;;;;;;4998003;28;20085;-30
2023/05/26 10:24:01;;;;;;;14.20;3.85;;;;;;;;;;4998002;28;20054;-31
2023/05/26 10:26:34;;;;;;;12.38;3.83;;;;;;;;;;4998263;28;20054;-33
2023/05/26 10:29:06;;;;;;;6.82;3.88;;;;;;;;;;4997831;28;20073;-30
2023/05/26 10:31:34;;;;;;;6.75;3.13;;;;;;;;;;4997694;28;20030;-29
2023/05/26 10:34:00;;;;;;;5.18;3.05;;;;;;;;;;4997686;28;20027;-29
2023/05/26 10:36:28;;;;;;;6.35;3.67;;;;;;;;;;4998019;28;20405;-28
2023/05/26 10:38:55;;;;;;;6.03;3.25;;;;;;;;;;4997657;28;20030;-30
2023/05/26 10:41:35;;;;;;;10.25;3.40;;;;;;;;;;4997953;28;20370;-30
2023/05/26 10:44:01;;;;;;;10.05;3.42;;;;;;;;;;4997519;28;20040;-30
2023/05/26 10:46:38;;;;;;;6.82;3.45;;;;;;;;;;4997691;28;20433;-29
2023/05/26 10:49:04;;;;;;;5.85;3.60;;;;;;;;;;4997391;28;20027;-32
2023/05/26 10:51:32;;;;;;;6.07;3.08;;;;;;;;;;4997688;28;20456;-28
2023/05/26 10:53:58;;;;;;;9.73;5.18;;;;;;;;;;4997701;28;20389;-30
2023/05/26 10:56:34;;;;;;;8.68;3.83;;;;;;;;;;4997718;28;20037;-28
2023/05/26 10:59:00;;;;;;;3.92;2.80;;;;;;;;;;4997645;28;20107;-31
2023/05/26 11:01:26;;;;;;;13.82;3.50;;;;;;;;;;4979966;28;20577;-29
2023/05/26 11:03:56;;;;;;;7.45;3.53;;;;;;;;;;4996060;28;20053;-30
2023/05/26 11:06:42;;;;;;;14.45;2.70;;;;;;;;;;4997395;28;20113;-30
2023/05/26 11:09:09;;;;;;;5.72;3.35;;;;;;;;;;4979961;28;20022;-30
2023/05/26 11:11:39;;;;;;;8.43;3.15;;;;;;;;;;4997402;28;20042;-28
2023/05/26 11:14:09;;;;;;;12.77;4.18;;;;;;;;;;4997205;28;20449;-29
2023/05/26 11:16:40;;;;;;;3.90;2.83;;;;;;;;;;4997226;28;20031;-31
2023/05/26 11:19:12;;;;;;;6.30;2.85;;;;;;;;;;4997771;28;20488;-31
2023/05/26 11:21:40;;;;;;;11.38;3.53;;;;;;;;;;4997089;28;20412;-32
2023/05/26 11:24:08;;;;;;;8.40;3.28;;;;;;;;;;4996659;28;20158;-30
2023/05/26 11:26:34;;;;;;;8.02;4.18;;;;;;;;;;4996669;28;20106;-29
2023/05/26 11:29:02;;;;;;;12.98;3.22;;;;;;;;;;4996856;28;20037;-30
2023/05/26 11:31:29;;;;;;;4.82;2.95;;;;;;;;;;4997525;28;20408;-30
2023/05/26 11:33:55;;;;;;;4.82;3.10;;;;;;;;;;4996793;28;20019;-31
2023/05/26 11:36:23;;;;;;;6.75;3.17;;;;;;;;;;4997050;28;20026;-31
2023/05/26 11:38:56;;;;;;;5.38;3.03;;;;;;;;;;4996632;28;20105;-31
2023/05/26 11:41:26;;;;;;;4.63;2.80;;;;;;;;;;4996953;28;20516;-29
2023/05/26 11:43:55;;;;;;;7.50;3.22;;;;;;;;;;4996776;28;20109;-30
2023/05/26 11:46:22;;;;;;;6.47;3.45;;;;;;;;;;4996718;28;20037;-31
2023/05/26 11:48:48;;;;;;;6.20;2.55;;;;;;;;;;4996603;28;20117;-29
2023/05/26 11:51:17;;;;;;;16.00;3.70;;;;;;;;;;4996801;28;20449;-31
2023/05/26 11:53:46;;;;;;;8.93;3.38;;;;;;;;;;4996537;28;20027;-28
2023/05/26 11:56:16;;;;;;;6.82;4.00;;;;;;;;;;4996495;28;20065;-31
2023/05/26 11:58:44;;;;;;;6.10;3.50;;;;;;;;;;4996528;28;20372;-31
2023/05/26 12:01:10;;;;;;;5.68;3.30;;;;;;;;;;4996567;28;20030;-30
2023/05/26 12:03:40;;;;;;;13.43;4.53;;;;;;;;;;4996130;28;20030;-32
2023/05/26 12:06:07;;;;;;;8.60;3.40;;;;;;;;;;4996062;28;20027;-28
2023/05/26 12:08:43;;;;;;;10.20;3.63;;;;;;;;;;4995747;28;20133;-29
2023/05/26 12:11:33;;;;;;;7.82;3.63;;;;;;;;;;4995859;28;20073;-27
2023/05/26 12:14:03;;;;;;;5.75;3.38;;;;;;;;;;4985483;28;20322;-28
2023/05/26 12:16:29;;;;;;;14.52;3.67;;;;;;;;;;4995685;28;20027;-31
2023/05/26 12:18:56;;;;;;;8.40;3.53;;;;;;;;;;4995897;28;20098;-31
2023/05/26 12:21:23;;;;;;;9.20;4.95;;;;;;;;;;4996046;28;20361;-30
2023/05/26 12:23:49;;;;;;;7.53;3.95;;;;;;;;;;4995585;28;20057;-28
2023/05/26 12:26:16;;;;;;;11.18;4.57;;;;;;;;;;4995863;28;20032;-32
2023/05/26 12:28:46;;;;;;;4.55;3.10;;;;;;;;;;4995766;28;20495;-28
2023/05/26 12:31:12;;;;;;;9.18;3.58;;;;;;;;;;4995650;28;20033;-29
2023/05/26 12:33:39;;;;;;;7.47;4.22;;;;;;;;;;4996069;28;20431;-28
2023/05/26 12:36:05;;;;;;;12.25;3.63;;;;;;;;;;4995484;28;20019;-30
2023/05/26 12:38:41;;;;;;;7.35;3.53;;;;;;;;;;4995430;28;20137;-31
2023/05/26 12:41:07;;;;;;;6.60;3.15;;;;;;;;;;4995485;28;20525;-30
2023/05/26 12:43:34;;;;;;;14.50;4.38;;;;;;;;;;4995514;28;20034;-30
2023/05/26 12:46:02;;;;;;;10.55;3.75;;;;;;;;;;4995494;28;20442;-31
2023/05/26 12:48:29;;;;;;;19.17;3.72;;;;;;;;;;4995349;28;20030;-29
2023/05/26 12:50:55;;;;;;;19.17;4.45;;;;;;;;;;4995596;28;20077;-28
2023/05/26 12:53:22;;;;;;;10.60;3.47;;;;;;;;;;4995419;28;20362;-28
2023/05/26 12:55:48;;;;;;;7.32;3.95;;;;;;;;;;4995569;28;20093;-29
2023/05/26 12:58:14;;;;;;;7.38;3.30;;;;;;;;;;4995430;28;20090;-30
2023/05/26 13:00:40;;;;;;;7.88;3.28;;;;;;;;;;4978104;28;20026;-29
2023/05/26 13:03:06;;;;;;;8.38;3.72;;;;;;;;;;4995099;28;20121;-30
2023/05/26 13:05:33;;;;;;;6.40;3.70;;;;;;;;;;4995191;28;20041;-30
2023/05/26 13:07:59;;;;;;;5.80;4.35;;;;;;;;;;4995169;28;20026;-31
2023/05/26 13:10:26;;;;;;;9.65;3.95;;;;;;;;;;4995315;28;20022;-27
2023/05/26 13:12:52;;;;;;;11.57;4.30;;;;;;;;;;4995276;28;20030;-30
2023/05/26 13:15:21;;;;;;;11.75;4.25;;;;;;;;;;4995124;28;20033;-34
2023/05/26 13:17:47;;;;;;;9.40;3.13;;;;;;;;;;4995206;28;20041;-28
2023/05/26 13:20:13;;;;;;;11.88;4.32;;;;;;;;;;4995575;28;20042;-31
2023/05/26 13:22:44;;;;;;;9.13;3.72;;;;;;;;;;4995376;28;20112;-30
2023/05/26 13:25:11;;;;;;;10.25;4.05;;;;;;;;;;4994928;28;20047;-30
2023/05/26 13:27:37;;;;;;;8.15;3.78;;;;;;;;;;4994324;28;20023;-31
2023/05/26 13:30:03;;;;;;;7.82;3.40;;;;;;;;;;4995207;28;20053;-31
2023/05/26 13:32:29;;;;;;;14.13;3.35;;;;;;;;;;4994935;28;20033;-31
2023/05/26 13:34:56;;;;;;;3.63;2.90;;;;;;;;;;4977667;28;20050;-30
2023/05/26 13:37:23;;;;;;;4.65;2.85;;;;;;;;;;4994943;28;20454;-31
2023/05/26 13:39:49;;;;;;;7.50;3.53;;;;;;;;;;4995402;28;20393;-32
2023/05/26 13:42:15;;;;;;;11.13;3.92;;;;;;;;;;4994903;28;20030;-29
2023/05/26 13:44:42;;;;;;;10.88;3.30;;;;;;;;;;4994903;28;20050;-30
2023/05/26 13:47:08;;;;;;;7.60;3.30;;;;;;;;;;4994912;28;20030;-31
2023/05/26 13:49:34;;;;;;;19.73;4.85;;;;;;;;;;4994860;28;20369;-28
2023/05/26 13:52:04;;;;;;;7.90;3.13;;;;;;;;;;4994941;28;20015;-30
2023/05/26 13:54:30;;;;;;;10.75;3.42;;;;;;;;;;4994829;28;20033;-31
2023/05/26 13:56:56;;;;;;;6.50;3.63;;;;;;;;;;4995422;28;20022;-30
2023/05/26 13:59:23;;;;;;;14.95;5.60;;;;;;;;;;4978256;28;20030;-28
2023/05/26 14:01:49;;;;;;;13.18;4.47;;;;;;;;;;4995118;28;20030;-32
2023/05/26 14:04:15;;;;;;;15.10;3.60;;;;;;;;;;4995017;28;20030;-28
2023/05/26 14:06:42;;;;;;;10.93;4.05;;;;;;;;;;4994980;28;20042;-30
2023/05/26 14:09:09;;;;;;;9.75;3.88;;;;;;;;;;4994758;28;20121;-31
2023/05/26 14:11:35;;;;;;;8.52;3.67;;;;;;;;;;4995013;28;20414;-30
2023/05/26 14:14:01;;;;;;;9.90;3.47;;;;;;;;;;4995066;28;20023;-29
2023/05/26 14:16:27;;;;;;;11.43;3.22;;;;;;;;;;4994905;28;20026;-32
2023/05/26 14:18:53;;;;;;;10.38;3.13;;;;;;;;;;4994581;28;20045;-27
2023/05/26 14:21:20;;;;;;;5.40;3.47;;;;;;;;;;4994623;28;20104;-28
2023/05/26 14:23:46;;;;;;;10.13;4.38;;;;;;;;;;4994568;28;20046;-30
2023/05/26 14:26:12;;;;;;;6.55;3.60;;;;;;;;;;4994549;28;20040;-32
2023/05/26 14:28:38;;;;;;;8.90;3.92;;;;;;;;;;4994763;28;20392;-28
2023/05/26 14:31:04;;;;;;;6.13;3.15;;;;;;;;;;4995038;28;20045;-29
2023/05/26 14:33:31;;;;;;;7.10;3.75;;;;;;;;;;4994822;28;20026;-29
2023/05/26 14:35:57;;;;;;;6.47;3.30;;;;;;;;;;4994809;28;20042;-32
2023/05/26 14:38:23;;;;;;;5.18;3.20;;;;;;;;;;4979241;28;20035;-31
2023/05/26 14:40:49;;;;;;;6.45;3.28;;;;;;;;;;4997872;28;20026;-30
2023/05/26 14:43:15;;;;;;;10.20;3.58;;;;;;;;;;4980707;28;20041;-30